KHOU/HOU METAR and TAF weather

Enter ICAO airport designator
Station Type Date Time Source
KHOU METAR 2019/08/20 08:53 UTC NOAA

KHOU 200853Z 00000KT 10SM FEW030 SCT250 27/24 A2999 RMK AO2 SLP158 T02670244 50004


Station Type Date Time Source
KHOU Decoded METAR 2019/08/20 08:53 UTC NOAA

HOUSTON HOBBY AIRPORT, TX, United States (KHOU) 29-38N 095-17W 36M
Aug 20, 2019 - 04:53 AM EDT / 2019.08.20 0853 UTC
Wind: Calm:0
Visibility: 10 mile(s):0
Sky conditions: partly cloudy
Temperature: 80.1 F (26.7 C)
Dew Point: 75.9 F (24.4 C)
Relative Humidity: 87%
Pressure (altimeter): 29.99 in. Hg (1015 hPa)
Pressure tendency: 0.01 inches (0.4 hPa) higher than three hours ago
ob: KHOU 200853Z 00000KT 10SM FEW030 SCT250 27/24 A2999 RMK AO2 SLP158 T02670244 50004
cycle: 9

Station Type Date Time Source
KHOU TAF 2019/08/20 09:09 UTC NOAA

TAF
AMD KHOU 200906Z 2009/2106 00000KT P6SM FEW030 SCT250
FM201300 20004KT P6SM SCT025 SCT050
FM201500 22006KT P6SM VCSH SCT035 SCT060
FM201700 20006KT P6SM VCTS SCT040CB BKN060
FM210000 17006KT P6SM SCT045

Example: see airport list